Time;durP1;ratioP1;P1;durP2;ratioP2;P2;SDS_P1;SDS_P2;PMS_P1;PMS_P2;Temp;Humidity;BMP_temperature;BMP_pressure;BME280_temperature;BME280_humidity;BME280_pressure;Samples;Min_cycle;Max_cycle;Signal;HPM_P1;HPM_P2
2023/09/30 00:00:00;;;;;;;10.40;2.20;;;;;;;14.32;100.00;102466.75;4968693;28;20453;-73
2023/09/30 00:02:26;;;;;;;9.67;2.43;;;;;;;14.17;100.00;102477.47;4966739;28;20458;-73
2023/09/30 00:04:52;;;;;;;6.60;2.20;;;;;;;14.16;100.00;102459.63;4970148;28;20466;-74
2023/09/30 00:07:17;;;;;;;8.80;2.07;;;;;;;13.73;100.00;102393.75;4967534;28;20221;-73
2023/09/30 00:09:43;;;;;;;8.70;2.30;;;;;;;14.35;100.00;102485.25;4966720;28;20664;-73
2023/09/30 00:12:08;;;;;;;8.33;2.07;;;;;;;13.67;100.00;102394.47;4967156;28;20763;-73
2023/09/30 00:14:34;;;;;;;7.90;2.70;;;;;;;14.39;100.00;102493.81;4968651;28;20186;-73
2023/09/30 00:16:59;;;;;;;7.33;1.67;;;;;;;13.66;100.00;102404.44;4966998;28;20217;-73
2023/09/30 00:19:26;;;;;;;7.90;2.23;;;;;;;14.01;100.00;102493.81;4964120;28;20195;-72
2023/09/30 00:21:51;;;;;;;8.80;2.40;;;;;;;13.93;100.00;102458.81;4969081;28;20241;-73
2023/09/30 00:24:16;;;;;;;8.30;2.10;;;;;;;13.88;100.00;102426.97;4966515;28;20976;-72
2023/09/30 00:26:42;;;;;;;8.67;2.60;;;;;;;14.38;100.00;102522.69;4966887;28;20591;-73
2023/09/30 00:29:07;;;;;;;7.60;2.40;;;;;;;14.01;100.00;102440.72;4965491;28;20185;-73
2023/09/30 00:31:33;;;;;;;6.67;2.00;;;;;;;13.71;100.00;102409.25;4968940;28;20210;-73
2023/09/30 00:33:59;;;;;;;10.90;2.40;;;;;;;14.13;100.00;102451.91;4968212;28;20294;-73
2023/09/30 00:36:24;;;;;;;7.37;2.53;;;;;;;13.93;100.00;102431.84;4966234;28;20201;-73
2023/09/30 00:38:50;;;;;;;7.73;2.13;;;;;;;13.79;100.00;102436.16;4968357;28;20468;-73
2023/09/30 00:41:15;;;;;;;7.73;2.90;;;;;;;14.52;100.00;102547.22;4968855;28;20201;-73
2023/09/30 00:43:41;;;;;;;7.70;2.73;;;;;;;14.12;100.00;102493.41;4964928;28;20221;-73
2023/09/30 00:46:22;;;;;;;8.00;2.20;;;;;;;14.55;100.00;102554.94;4980825;28;20589;-73
2023/09/30 00:48:48;;;;;;;5.83;2.03;;;;;;;13.52;100.00;102445.66;4952057;28;20253;-73
2023/09/30 00:51:13;;;;;;;9.03;2.30;;;;;;;14.31;100.00;102547.88;4967826;28;21035;-73
2023/09/30 00:53:40;;;;;;;7.27;2.30;;;;;;;13.52;100.00;102437.56;4966719;28;20265;-74
2023/09/30 00:56:05;;;;;;;7.93;2.10;;;;;;;13.43;100.00;102428.69;4966866;28;20209;-73
2023/09/30 00:58:33;;;;;;;14.43;3.00;;;;;;;13.60;100.00;102501.34;4967460;28;20450;-74
2023/09/30 01:00:59;;;;;;;6.87;2.23;;;;;;;13.30;100.00;102441.91;4967568;28;20328;-73
2023/09/30 01:03:25;;;;;;;7.33;2.47;;;;;;;14.31;100.00;102564.06;4967450;28;20536;-73
2023/09/30 01:05:51;;;;;;;7.53;2.17;;;;;;;13.42;100.00;102435.09;4965560;28;20447;-73
2023/09/30 01:08:18;;;;;;;9.00;3.17;;;;;;;14.12;100.00;102558.16;4968243;28;20190;-73
2023/09/30 01:10:44;;;;;;;9.40;2.27;;;;;;;13.46;100.00;102438.28;4966910;28;20449;-73
2023/09/30 01:13:09;;;;;;;11.03;2.63;;;;;;;14.03;100.00;102561.94;4970222;28;20484;-73
2023/09/30 01:15:36;;;;;;;10.87;2.60;;;;;;;13.79;100.00;102576.41;4966238;28;20449;-73
2023/09/30 01:18:02;;;;;;;10.50;2.53;;;;;;;12.82;100.00;102444.66;4966192;28;20190;-72
2023/09/30 01:20:28;;;;;;;10.17;2.80;;;;;;;12.94;100.00;102471.22;4965407;28;20441;-73
2023/09/30 01:22:56;;;;;;;9.77;2.80;;;;;;;13.47;100.00;102582.81;4963594;28;21015;-72
2023/09/30 01:25:22;;;;;;;8.93;2.83;;;;;;;12.95;100.00;102497.94;4963813;28;20194;-73
2023/09/30 01:27:47;;;;;;;5.93;2.13;;;;;;;13.48;100.00;102557.53;4965763;28;20508;-72
2023/09/30 01:30:13;;;;;;;10.03;2.90;;;;;;;13.14;100.00;102477.84;4962928;28;20199;-73
2023/09/30 01:32:39;;;;;;;7.90;2.20;;;;;;;13.55;100.00;102523.47;4965490;28;20297;-73
2023/09/30 01:35:05;;;;;;;11.80;2.60;;;;;;;13.88;100.00;102607.72;4964592;28;21668;-73
2023/09/30 01:37:31;;;;;;;6.60;2.37;;;;;;;14.06;100.00;102633.56;4981416;28;20438;-73
2023/09/30 01:39:57;;;;;;;6.73;2.40;;;;;;;13.94;100.00;102622.34;4965666;28;20441;-73
2023/09/30 01:42:22;;;;;;;6.90;2.30;;;;;;;13.43;100.00;102503.34;4962958;28;20202;-72
2023/09/30 01:44:47;;;;;;;6.67;2.00;;;;;;;14.18;100.00;102607.88;4965837;28;20202;-73
2023/09/30 01:47:13;;;;;;;6.43;2.00;;;;;;;12.71;100.00;102418.09;4970890;28;20268;-73
2023/09/30 01:49:38;;;;;;;8.87;2.27;;;;;;;14.01;100.00;102623.34;4968396;28;20197;-73
2023/09/30 01:52:04;;;;;;;7.17;2.40;;;;;;;14.18;100.00;102621.38;4965639;28;20218;-73
2023/09/30 01:54:30;;;;;;;10.53;2.93;;;;;;;13.14;100.00;102523.66;4964722;28;20539;-73
2023/09/30 01:56:56;;;;;;;12.00;2.57;;;;;;;12.93;100.00;102510.78;4968085;28;20192;-73
2023/09/30 01:59:22;;;;;;;9.80;2.37;;;;;;;13.57;100.00;102607.72;4966692;28;20191;-73
2023/09/30 02:01:49;;;;;;;9.03;2.60;;;;;;;13.88;100.00;102633.84;4967078;28;20532;-73
2023/09/30 02:04:15;;;;;;;12.03;2.77;;;;;;;13.25;100.00;102574.50;4967408;28;20191;-73
2023/09/30 02:06:43;;;;;;;10.93;2.53;;;;;;;13.57;100.00;102616.66;4965281;28;20433;-73
2023/09/30 02:09:09;;;;;;;7.67;1.70;;;;;;;13.91;100.00;102633.50;4965955;28;20442;-74
2023/09/30 02:11:37;;;;;;;8.60;2.47;;;;;;;13.94;100.00;102619.66;4965645;28;20480;-73
2023/09/30 02:14:04;;;;;;;8.20;2.13;;;;;;;13.23;100.00;102505.59;4966916;28;20284;-73
2023/09/30 02:16:31;;;;;;;8.97;2.20;;;;;;;13.33;100.00;102503.53;4980466;28;20961;-73
2023/09/30 02:18:56;;;;;;;7.20;2.13;;;;;;;14.07;100.00;102601.03;4967257;28;20449;-73
2023/09/30 02:21:22;;;;;;;6.10;2.10;;;;;;;13.47;100.00;102512.72;4963180;28;20210;-73
2023/09/30 02:23:48;;;;;;;10.63;2.00;;;;;;;14.28;100.00;102630.06;4968646;28;20194;-73
2023/09/30 02:26:16;;;;;;;5.73;2.00;;;;;;;13.82;100.00;102553.66;4966000;28;20495;-73
2023/09/30 02:28:42;;;;;;;10.33;2.47;;;;;;;13.23;100.00;102489.44;4965304;28;20242;-73
2023/09/30 02:31:08;;;;;;;7.57;2.20;;;;;;;12.60;100.00;102477.69;4964898;28;20441;-73
2023/09/30 02:33:37;;;;;;;13.97;2.60;;;;;;;13.00;100.00;102500.13;4964008;28;20584;-73
2023/09/30 02:36:05;;;;;;;9.63;2.60;;;;;;;12.85;100.00;102557.41;4964007;28;20222;-73
2023/09/30 02:38:31;;;;;;;10.80;2.50;;;;;;;13.31;100.00;102621.47;4962203;28;20442;-73
2023/09/30 02:40:57;;;;;;;8.80;2.50;;;;;;;12.99;100.00;102555.00;4963603;28;20456;-73
2023/09/30 02:43:22;;;;;;;6.60;1.87;;;;;;;13.49;100.00;102602.38;4963994;28;20207;-73
2023/09/30 02:45:48;;;;;;;8.90;2.27;;;;;;;12.86;100.00;102563.63;4967666;28;20240;-73
2023/09/30 02:48:13;;;;;;;6.33;1.97;;;;;;;13.67;100.00;102653.34;4964670;28;20186;-73
2023/09/30 02:50:44;;;;;;;7.03;1.80;;;;;;;13.87;100.00;102670.78;4964074;28;20543;-73
2023/09/30 02:53:09;;;;;;;8.53;2.13;;;;;;;13.78;100.00;102661.03;4980374;28;20210;-73
2023/09/30 02:55:35;;;;;;;7.30;1.77;;;;;;;12.79;100.00;102550.03;4965389;28;20452;-73
2023/09/30 02:58:00;;;;;;;9.87;2.40;;;;;;;13.66;100.00;102678.63;4966570;28;20189;-73
2023/09/30 03:00:26;;;;;;;6.93;2.07;;;;;;;13.82;100.00;102659.66;4967148;28;20182;-72
2023/09/30 03:02:55;;;;;;;10.87;2.37;;;;;;;13.23;100.00;102563.00;4962206;28;20210;-72
2023/09/30 03:05:21;;;;;;;8.30;2.53;;;;;;;12.95;100.00;102562.59;4963787;28;20194;-73
2023/09/30 03:07:48;;;;;;;9.93;2.03;;;;;;;13.61;100.00;102681.00;4963842;28;20438;-72
2023/09/30 03:10:19;;;;;;;9.97;2.50;;;;;;;13.52;100.00;102675.63;4961586;28;20860;-73
2023/09/30 03:12:48;;;;;;;9.97;2.30;;;;;;;12.71;100.00;102547.34;4960920;28;20544;-72
2023/09/30 03:15:14;;;;;;;8.70;2.27;;;;;;;13.59;100.00;102678.47;4963872;28;20434;-72
2023/09/30 03:17:41;;;;;;;5.97;1.97;;;;;;;13.18;100.00;102621.97;4963586;28;20473;-72
2023/09/30 03:20:11;;;;;;;5.47;1.93;;;;;;;12.66;100.00;102568.53;4963411;28;20493;-73
2023/09/30 03:22:38;;;;;;;7.40;2.10;;;;;;;13.71;100.00;102679.78;4958081;28;20466;-72
2023/09/30 03:25:06;;;;;;;8.97;2.50;;;;;;;13.30;100.00;102665.59;4960635;28;20449;-72
2023/09/30 03:27:33;;;;;;;6.77;2.07;;;;;;;13.29;100.00;102610.00;4961062;28;20604;-73
2023/09/30 03:29:58;;;;;;;7.40;2.40;;;;;;;13.32;100.00;102702.13;4966184;28;20441;-73
2023/09/30 03:32:24;;;;;;;8.60;2.10;;;;;;;13.32;100.00;102698.59;4966630;28;20476;-73
2023/09/30 03:34:52;;;;;;;7.13;2.30;;;;;;;12.41;100.00;102565.88;4966440;28;20202;-73
2023/09/30 03:37:17;;;;;;;6.30;2.00;;;;;;;13.27;100.00;102669.47;4968949;28;20442;-73
2023/09/30 03:39:43;;;;;;;7.40;2.10;;;;;;;13.02;100.00;102627.41;4963818;28;20453;-73
2023/09/30 03:42:11;;;;;;;10.23;2.33;;;;;;;12.70;100.00;102612.09;4966648;28;20210;-73
2023/09/30 03:44:38;;;;;;;7.43;1.80;;;;;;;13.09;100.00;102679.56;4964839;28;20205;-73
2023/09/30 03:47:04;;;;;;;14.40;2.30;;;;;;;12.89;100.00;102663.75;4965944;28;20450;-73
2023/09/30 03:49:31;;;;;;;8.47;3.03;;;;;;;12.34;100.00;102605.22;4965793;28;20456;-73
2023/09/30 03:51:57;;;;;;;5.83;2.37;;;;;;;12.26;100.00;102599.00;4981000;28;20560;-73
2023/09/30 03:54:23;;;;;;;7.10;2.47;;;;;;;12.66;100.00;102678.91;4963790;28;20473;-73
2023/09/30 03:56:48;;;;;;;9.20;2.70;;;;;;;12.47;100.00;102649.63;4963035;28;21195;-72
2023/09/30 03:59:14;;;;;;;7.47;2.10;;;;;;;12.85;100.00;102731.63;4963450;28;20179;-73
2023/09/30 04:01:40;;;;;;;11.40;2.30;;;;;;;12.12;100.00;102630.06;4978465;28;20186;-73
2023/09/30 04:04:07;;;;;;;9.70;2.27;;;;;;;11.96;100.00;102618.28;4961007;28;20180;-72
2023/09/30 04:06:33;;;;;;;6.43;2.10;;;;;;;12.34;100.00;102660.91;4963935;28;20732;-73
2023/09/30 04:08:59;;;;;;;6.30;1.70;;;;;;;12.65;100.00;102721.16;4966695;28;20461;-73
2023/09/30 04:11:25;;;;;;;6.50;1.80;;;;;;;12.03;100.00;102617.63;4964623;28;20190;-72
2023/09/30 04:13:50;;;;;;;6.83;2.27;;;;;;;12.28;100.00;102621.19;4962245;28;20453;-73
2023/09/30 04:16:18;;;;;;;6.97;1.93;;;;;;;12.98;100.00;102733.78;4962192;28;20484;-72
2023/09/30 04:18:43;;;;;;;6.20;2.00;;;;;;;12.37;100.00;102645.25;4960351;28;20191;-73
2023/09/30 04:21:09;;;;;;;13.70;2.60;;;;;;;12.11;100.00;102648.06;4963818;28;20449;-73
2023/09/30 04:23:37;;;;;;;4.63;1.60;;;;;;;12.91;100.00;102765.13;4965985;28;20217;-73
2023/09/30 04:26:03;;;;;;;8.03;2.20;;;;;;;12.78;100.00;102765.59;4968861;28;20241;-73
2023/09/30 04:28:29;;;;;;;7.70;1.83;;;;;;;12.17;100.00;102625.03;4972193;28;20446;-72
2023/09/30 04:30:54;;;;;;;6.03;1.93;;;;;;;12.68;100.00;102716.47;4966072;28;20190;-73
2023/09/30 04:33:24;;;;;;;6.73;2.23;;;;;;;12.61;100.00;102721.66;4969219;28;20293;-73
2023/09/30 04:35:50;;;;;;;6.50;1.73;;;;;;;12.82;100.00;102773.19;4967488;28;20186;-73
2023/09/30 04:38:15;;;;;;;5.73;1.87;;;;;;;12.99;100.00;102781.25;4968493;28;20434;-73
2023/09/30 04:40:44;;;;;;;9.07;2.20;;;;;;;12.83;100.00;102793.72;4967075;28;20194;-72
2023/09/30 04:43:09;;;;;;;8.43;2.73;;;;;;;11.36;100.00;102604.09;4968542;28;20205;-73
2023/09/30 04:45:35;;;;;;;9.83;1.90;;;;;;;12.49;100.00;102757.97;4967615;28;20446;-73
2023/09/30 04:48:03;;;;;;;7.13;2.13;;;;;;;12.08;100.00;102714.81;4967146;28;20657;-73
2023/09/30 04:50:30;;;;;;;8.40;2.30;;;;;;;12.49;100.00;102790.28;4982138;28;20186;-73
2023/09/30 04:52:56;;;;;;;7.73;2.70;;;;;;;12.76;100.00;102805.34;4965383;28;20872;-73
2023/09/30 04:55:21;;;;;;;10.20;1.97;;;;;;;12.71;100.00;102775.34;4966753;28;21130;-73
2023/09/30 04:57:48;;;;;;;9.20;2.40;;;;;;;12.64;100.00;102786.78;4968269;28;20722;-73
2023/09/30 05:00:18;;;;;;;11.70;3.07;;;;;;;12.71;100.00;102813.88;4963898;28;20202;-73
2023/09/30 05:02:45;;;;;;;11.03;2.33;;;;;;;12.68;100.00;102810.69;4967286;28;20462;-72
2023/09/30 05:05:10;;;;;;;6.50;1.90;;;;;;;12.48;100.00;102783.22;4967944;28;20940;-73
2023/09/30 05:07:36;;;;;;;8.90;2.17;;;;;;;12.42;100.00;102800.84;4967843;28;20468;-73
2023/09/30 05:10:05;;;;;;;5.80;2.27;;;;;;;12.52;100.00;102827.63;4967820;28;20199;-72
2023/09/30 05:12:32;;;;;;;8.37;2.20;;;;;;;12.37;100.00;102835.47;4967831;28;20227;-73
2023/09/30 05:14:58;;;;;;;7.70;2.40;;;;;;;11.89;100.00;102703.31;4970382;28;20446;-72
2023/09/30 05:17:24;;;;;;;9.63;2.57;;;;;;;12.34;100.00;102803.50;4966305;28;20376;-72
2023/09/30 05:19:49;;;;;;;6.47;2.30;;;;;;;12.19;100.00;102736.88;4966345;28;20456;-73
2023/09/30 05:22:15;;;;;;;8.95;2.75;;;;;;;12.06;100.00;102775.97;4964735;28;20125;-72
2023/09/30 05:24:40;;;;;;;;;;;;;;;12.77;100.00;102861.69;4966646;28;20385;-72
2023/09/30 05:27:05;;;;;;;;;;;;;;;12.56;100.00;102874.75;4969273;28;20392;-72
2023/09/30 05:29:33;;;;;;;;;;;;;;;12.53;100.00;102877.78;4969023;28;19922;-73
2023/09/30 05:31:58;;;;;;;;;;;;;;;12.63;100.00;102886.56;4967326;28;20388;-72
2023/09/30 05:34:24;;;;;;;;;;;;;;;12.49;100.00;102889.84;4969257;28;19922;-73
2023/09/30 05:36:51;;;;;;;;;;;;;;;12.42;100.00;102895.88;4969747;28;19922;-73
2023/09/30 05:39:19;;;;;;;;;;;;;;;12.53;100.00;102893.94;4967534;28;19918;-72
2023/09/30 05:41:45;;;;;;;;;;;;;;;12.62;100.00;102892.97;4965719;28;19915;-73
2023/09/30 05:44:10;;;;;;;;;;;;;;;12.59;100.00;102891.44;4968504;28;20341;-72
2023/09/30 05:46:35;;;;;;;;;;;;;;;12.56;100.00;102890.91;4968111;28;19918;-72
2023/09/30 05:49:01;;;;;;;;;;;;;;;12.48;100.00;102901.63;4961129;28;19973;-73
2023/09/30 05:51:26;;;;;;;;;;;;;;;12.77;100.00;102898.56;4967399;28;20396;-73
2023/09/30 05:53:52;;;;;;;;;;;;;;;12.85;100.00;102906.66;4965267;28;19926;-73
2023/09/30 05:56:17;;;;;;;;;;;;;;;12.65;100.00;102912.31;4981617;28;19937;-73
2023/09/30 05:58:43;;;;;;;;;;;;;;;12.46;100.00;102922.47;4965838;28;19918;-73
2023/09/30 06:01:12;;;;;;;;;;;;;;;12.38;100.00;102924.13;4965985;28;19922;-73
2023/09/30 06:03:39;;;;;;;;;;;;;;;12.34;100.00;102919.22;4968019;28;20021;-73
2023/09/30 06:06:12;;;;;;;;;;;;;;;12.47;100.00;102926.84;4967574;28;19924;-73
2023/09/30 06:08:37;;;;;;;;;;;;;;;12.53;100.00;102932.47;4964974;28;19926;-73
2023/09/30 06:11:03;;;;;;;;;;;;;;;12.40;100.00;102934.72;4967594;28;19963;-73
2023/09/30 06:13:31;;;;;;;;;;;;;;;12.48;100.00;102934.78;4967411;28;19922;-73
2023/09/30 06:15:56;;;;;;;;;;;;;;;12.61;100.00;102931.63;4966208;28;20899;-73
2023/09/30 06:18:22;;;;;;;;;;;;;;;12.76;100.00;102939.97;4968664;28;19984;-73
2023/09/30 06:20:48;;;;;;;6.67;2.33;;;;;;;12.81;100.00;102924.16;4965639;28;20367;-73
2023/09/30 06:23:14;;;;;;;8.23;1.83;;;;;;;13.00;100.00;102944.59;4961806;28;20841;-73
2023/09/30 06:25:40;;;;;;;9.30;2.27;;;;;;;12.82;100.00;102934.78;4965703;28;20442;-73
2023/09/30 06:28:07;;;;;;;10.23;2.57;;;;;;;11.99;100.00;102845.72;4965436;28;25136;-73
2023/09/30 06:30:33;;;;;;;9.80;2.67;;;;;;;12.53;100.00;102902.84;4963127;28;20198;-73
2023/09/30 06:33:04;;;;;;;6.30;2.13;;;;;;;11.29;100.00;102677.28;4977228;28;20476;-73
2023/09/30 06:35:33;;;;;;;9.30;2.73;;;;;;;12.86;100.00;102968.44;4979578;28;20933;-73
2023/09/30 06:37:59;;;;;;;8.30;2.60;;;;;;;11.98;100.00;102839.50;4966129;28;20448;-73
2023/09/30 06:40:24;;;;;;;10.37;2.87;;;;;;;12.69;100.00;102961.28;4962753;28;20528;-73
2023/09/30 06:42:50;;;;;;;7.83;2.60;;;;;;;12.06;100.00;102862.88;4964536;28;20466;-73
2023/09/30 06:45:15;;;;;;;7.37;2.40;;;;;;;12.85;100.00;102977.53;4963389;28;20190;-73
2023/09/30 06:47:41;;;;;;;11.27;3.33;;;;;;;12.73;100.00;102975.25;4965841;28;20281;-73
2023/09/30 06:50:12;;;;;;;9.37;3.13;;;;;;;12.83;100.00;102966.06;4965618;28;20272;-73
2023/09/30 06:52:39;;;;;;;12.10;3.60;;;;;;;12.88;100.00;102987.97;4964993;28;20217;-73
2023/09/30 06:55:06;;;;;;;10.97;3.60;;;;;;;12.96;100.00;103000.66;4963381;28;20496;-73
2023/09/30 06:57:34;;;;;;;10.30;3.03;;;;;;;13.12;100.00;102987.22;4970331;28;20540;-73
2023/09/30 06:59:59;;;;;;;11.83;2.90;;;;;;;12.01;100.00;102846.41;4964823;28;20476;-73
2023/09/30 07:02:24;;;;;;;9.30;3.50;;;;;;;12.98;100.00;102992.38;4963313;28;20482;-73
2023/09/30 07:04:50;;;;;;;6.57;3.17;;;;;;;13.21;100.00;102995.34;4964426;28;20590;-73
2023/09/30 07:07:16;;;;;;;9.37;3.23;;;;;;;12.86;100.00;102921.81;4962622;28;20213;-73
2023/09/30 07:09:44;;;;;;;7.10;2.90;;;;;;;12.97;100.00;102996.09;4966091;28;20450;-73
2023/09/30 07:12:09;;;;;;;9.67;2.83;;;;;;;12.55;100.00;102908.06;4964239;28;20228;-73
2023/09/30 07:14:35;;;;;;;8.70;3.20;;;;;;;12.51;100.00;102902.16;4966033;28;20441;-73
2023/09/30 07:17:00;;;;;;;10.27;3.50;;;;;;;12.96;100.00;103002.47;4963250;28;20194;-73
2023/09/30 07:19:26;;;;;;;7.90;2.73;;;;;;;12.38;100.00;102904.44;4966363;28;20195;-73
2023/09/30 07:21:51;;;;;;;9.70;3.33;;;;;;;13.04;100.00;102949.47;4966017;28;20289;-73
2023/09/30 07:24:17;;;;;;;12.73;3.63;;;;;;;13.16;100.00;102992.28;4965450;28;20186;-73
2023/09/30 07:26:42;;;;;;;7.87;3.10;;;;;;;12.94;100.00;102939.88;4980644;28;20669;-73
2023/09/30 07:29:09;;;;;;;8.60;2.73;;;;;;;13.16;100.00;102952.69;4966280;28;20754;-74
2023/09/30 07:31:35;;;;;;;9.50;2.97;;;;;;;13.65;100.00;103012.16;4978565;28;20210;-73
2023/09/30 07:34:01;;;;;;;6.20;2.37;;;;;;;13.17;100.00;102914.00;4966277;28;20563;-73
2023/09/30 07:36:27;;;;;;;10.10;2.80;;;;;;;12.99;100.00;102865.63;4957324;28;20441;-73
2023/09/30 07:38:52;;;;;;;7.43;2.87;;;;;;;14.14;100.00;103025.66;4965475;28;20446;-73
2023/09/30 07:41:18;;;;;;;7.90;2.50;;;;;;;13.82;100.00;102999.53;4967966;28;20342;-73
2023/09/30 07:43:43;;;;;;;7.63;2.60;;;;;;;14.34;100.00;103028.84;4969797;28;20202;-73
2023/09/30 07:46:09;;;;;;;7.93;2.47;;;;;;;13.92;100.00;103004.78;4970816;28;20285;-73
2023/09/30 07:48:35;;;;;;;8.67;3.00;;;;;;;13.28;100.00;102923.66;4968220;28;20273;-73
2023/09/30 07:51:01;;;;;;;7.93;2.93;;;;;;;13.80;100.00;102974.59;4971397;28;20198;-73
2023/09/30 07:53:27;;;;;;;8.70;2.83;;;;;;;13.67;100.00;102936.47;4974260;28;20225;-72
2023/09/30 07:55:54;;;;;;;6.43;2.50;;;;;;;14.33;100.00;103013.69;4946461;28;20964;-73
2023/09/30 07:58:20;;;;;;;6.27;2.20;;;;;;;14.24;100.00;102985.88;4960291;28;20457;-73
2023/09/30 08:00:45;;;;;;;9.00;2.33;;;;;;;13.97;100.00;102930.41;4962668;28;21020;-73
2023/09/30 08:03:11;;;;;;;10.00;2.53;;;;;;;14.45;100.00;103003.38;4979053;28;20210;-72
2023/09/30 08:05:37;;;;;;;8.77;3.43;;;;;;;13.64;100.00;102885.59;4968404;28;20230;-72
2023/09/30 08:08:03;;;;;;;8.10;2.27;;;;;;;14.54;100.00;102982.63;4966545;28;20441;-72
2023/09/30 08:10:31;;;;;;;7.70;2.13;;;;;;;14.25;100.00;102898.47;4970373;28;20434;-73
2023/09/30 08:12:58;;;;;;;6.97;2.03;;;;;;;14.04;100.00;102855.00;4969339;28;20478;-73
2023/09/30 08:15:24;;;;;;;7.30;2.77;;;;;;;14.24;100.00;102872.50;4970970;28;20449;-73
2023/09/30 08:17:49;;;;;;;10.63;3.00;;;;;;;14.62;100.00;102921.31;4965231;28;20446;-73
2023/09/30 08:20:15;;;;;;;8.97;2.50;;;;;;;14.68;100.00;102901.72;4969153;28;20518;-72
2023/09/30 08:22:41;;;;;;;9.57;2.40;;;;;;;15.05;100.00;102958.81;4964220;28;20214;-72
2023/09/30 08:25:07;;;;;;;8.43;2.67;;;;;;;14.63;100.00;102863.59;4963374;28;20198;-74
2023/09/30 08:27:32;;;;;;;9.80;2.33;;;;;;;15.21;100.00;102944.34;4968507;28;20194;-72
2023/09/30 08:29:58;;;;;;;7.20;2.17;;;;;;;14.47;100.00;102801.53;4968021;28;20439;-73
2023/09/30 08:32:23;;;;;;;7.20;2.13;;;;;;;14.99;100.00;102844.16;4963553;28;20608;-73
2023/09/30 08:34:49;;;;;;;8.10;2.60;;;;;;;15.13;100.00;102848.78;4965204;28;20237;-72
2023/09/30 08:37:14;;;;;;;9.40;2.60;;;;;;;15.09;100.00;102824.97;4968058;28;20244;-72
2023/09/30 08:39:40;;;;;;;6.83;1.87;;;;;;;14.40;100.00;102698.78;4966787;28;20450;-72
2023/09/30 08:42:12;;;;;;;7.70;1.80;;;;;;;14.77;100.00;102753.09;4968328;28;20265;-72
2023/09/30 08:44:39;;;;;;;14.03;3.03;;;;;;;14.66;100.00;102713.84;4965133;28;20214;-72
2023/09/30 08:47:08;;;;;;;8.33;2.87;;;;;;;14.63;100.00;102714.22;4981886;28;20439;-73
2023/09/30 08:49:41;;;;;;;8.60;3.10;;;;;;;14.78;100.00;102714.25;4966215;28;20450;-72
2023/09/30 08:52:08;;;;;;;6.30;2.20;;;;;;;15.63;100.00;102822.16;4961467;28;20489;-73
2023/09/30 08:54:34;;;;;;;6.23;1.50;;;;;;;15.56;100.00;102805.84;4964531;28;20456;-73
2023/09/30 08:57:00;;;;;;;8.00;2.53;;;;;;;15.79;100.00;102819.31;4966824;28;20445;-72
2023/09/30 08:59:27;;;;;;;6.97;2.23;;;;;;;15.00;100.00;102707.16;4965007;28;20194;-74
2023/09/30 09:01:53;;;;;;;6.83;2.33;;;;;;;15.23;100.00;102697.13;4965120;28;20502;-73
2023/09/30 09:04:18;;;;;;;8.00;2.27;;;;;;;15.38;100.00;102708.81;4968377;28;20484;-73
2023/09/30 09:06:44;;;;;;;10.90;2.53;;;;;;;15.82;100.00;102737.78;4965010;28;20209;-73
2023/09/30 09:09:16;;;;;;;9.30;2.03;;;;;;;15.20;100.00;102615.59;4966736;28;20178;-73
2023/09/30 09:11:43;;;;;;;8.10;1.83;;;;;;;15.30;100.00;102608.00;4963687;28;20214;-73
2023/09/30 09:14:09;;;;;;;9.13;2.07;;;;;;;15.13;100.00;102597.41;4964067;28;20472;-73
2023/09/30 09:16:34;;;;;;;7.90;2.13;;;;;;;15.89;100.00;102669.38;4964805;28;20449;-72
2023/09/30 09:19:13;;;;;;;10.40;2.33;;;;;;;15.58;100.00;102592.78;4966293;28;20641;-72
2023/09/30 09:21:54;;;;;;;9.53;1.63;;;;;;;15.97;100.00;102642.19;4983867;28;20201;-72
2023/09/30 09:24:37;;;;;;;8.03;1.87;;;;;;;15.39;100.00;102550.13;4967481;28;20458;-71
2023/09/30 09:27:12;;;;;;;10.03;1.93;;;;;;;16.27;100.00;102657.31;4968515;28;20453;-72
2023/09/30 09:29:39;;;;;;;6.33;2.37;;;;;;;15.86;100.00;102564.22;4967098;28;20545;-72
2023/09/30 09:32:16;;;;;;;10.00;2.20;;;;;;;16.40;100.00;102626.81;4967796;28;20564;-73
2023/09/30 09:34:43;;;;;;;5.53;1.67;;;;;;;15.79;100.00;102512.72;4967954;28;20496;-73
2023/09/30 09:37:15;;;;;;;7.10;1.67;;;;;;;16.54;100.00;102600.69;4967029;28;21176;-73
2023/09/30 09:39:51;;;;;;;8.40;1.80;;;;;;;15.76;100.00;102454.44;4966290;28;20496;-73
2023/09/30 09:42:30;;;;;;;8.40;2.00;;;;;;;16.57;100.00;102564.22;4965107;28;20459;-73
2023/09/30 09:44:59;;;;;;;8.60;2.10;;;;;;;15.85;100.00;102411.84;4967282;28;21275;-73
2023/09/30 09:47:25;;;;;;;5.53;1.53;;;;;;;16.58;100.00;102501.75;4965121;28;20367;-74
2023/09/30 09:49:52;;;;;;;6.43;1.60;;;;;;;15.95;100.00;102381.75;4966908;28;20526;-74
2023/09/30 09:52:19;;;;;;;11.23;1.97;;;;;;;16.81;100.00;102479.00;4965694;28;20240;-73
2023/09/30 09:54:48;;;;;;;7.20;1.60;;;;;;;16.24;100.00;102359.88;4966343;28;20448;-73
2023/09/30 09:57:15;;;;;;;6.90;1.67;;;;;;;16.67;100.00;102411.16;4965968;28;20446;-72
2023/09/30 09:59:43;;;;;;;7.40;1.77;;;;;;;16.26;100.00;102327.19;4964230;28;20462;-74
2023/09/30 10:02:15;;;;;;;7.60;1.73;;;;;;;16.99;100.00;102433.19;4967963;28;21129;-73
2023/09/30 10:04:45;;;;;;;5.13;1.40;;;;;;;16.85;100.00;102394.38;4968434;28;20441;-73
2023/09/30 10:07:25;;;;;;;6.40;1.80;;;;;;;16.94;100.00;102409.41;4979325;28;20445;-73
2023/09/30 10:09:52;;;;;;;8.30;1.73;;;;;;;17.06;100.00;102406.94;4968768;28;20441;-73
2023/09/30 10:12:19;;;;;;;8.00;1.83;;;;;;;17.05;100.00;102363.78;4969205;28;20473;-73
2023/09/30 10:14:44;;;;;;;9.80;1.73;;;;;;;17.21;100.00;102386.94;4967566;28;20469;-73
2023/09/30 10:17:10;;;;;;;6.10;1.70;;;;;;;17.23;100.00;102349.63;4969390;28;20466;-73
2023/09/30 10:19:36;;;;;;;6.97;1.70;;;;;;;16.57;100.00;102250.84;4968668;28;20190;-73
2023/09/30 10:22:21;;;;;;;8.37;2.33;;;;;;;16.86;100.00;102219.03;4965182;28;20489;-73
2023/09/30 10:24:50;;;;;;;4.03;1.37;;;;;;;17.40;100.00;102304.78;4963003;28;20186;-74
2023/09/30 10:27:22;;;;;;;8.27;2.10;;;;;;;17.27;100.00;102283.94;4965112;28;20951;-74
2023/09/30 10:29:47;;;;;;;8.10;1.70;;;;;;;17.35;100.00;102270.16;4966215;28;20476;-74
2023/09/30 10:32:16;;;;;;;8.67;1.73;;;;;;;17.09;100.00;102192.38;4964727;28;20481;-75
2023/09/30 10:34:48;;;;;;;7.93;1.97;;;;;;;17.53;100.00;102228.00;4965393;28;20194;-75
2023/09/30 10:37:21;;;;;;;7.80;1.73;;;;;;;17.61;100.00;102234.03;4963843;28;20496;-75
2023/09/30 10:40:29;;;;;;;7.67;1.70;;;;;;;17.55;100.00;102196.91;4964227;28;20504;-75
2023/09/30 10:42:56;;;;;;;7.30;2.00;;;;;;;17.76;100.00;102209.38;4957340;28;20524;-75
2023/09/30 10:45:40;;;;;;;8.87;1.93;;;;;;;17.75;100.00;102191.41;4966254;28;20441;-75
2023/09/30 10:48:24;;;;;;;8.10;1.53;;;;;;;17.76;100.00;102174.09;4965154;28;20545;-74
2023/09/30 10:50:51;;;;;;;4.80;1.33;;;;;;;17.78;100.00;102160.34;4965371;28;20511;-74
2023/09/30 10:53:18;;;;;;;8.97;1.53;;;;;;;16.99;100.00;102018.50;4966635;28;20585;-75
2023/09/30 10:55:46;;;;;;;5.67;1.80;;;;;;;17.75;100.00;102128.19;4966366;28;20453;-74
2023/09/30 10:58:15;;;;;;;7.30;1.77;;;;;;;17.95;100.00;102141.69;4964239;28;20921;-75
2023/09/30 11:00:55;;;;;;;8.13;1.77;;;;;;;17.73;100.00;102078.69;4966961;28;20488;-75
2023/09/30 11:03:24;;;;;;;8.67;3.20;;;;;;;17.48;100.00;102011.63;4974919;28;20465;-75
2023/09/30 11:05:54;;;;;;;5.13;2.17;;;;;;;18.13;100.00;102040.50;4977319;28;20538;-77
2023/09/30 11:08:24;;;;;;;7.53;2.13;;;;;;;17.79;100.00;101993.75;4964910;28;20517;-74
2023/09/30 11:10:51;;;;;;;8.67;1.83;;;;;;;17.93;100.00;102100.34;4957860;28;20437;-74
2023/09/30 11:13:20;;;;;;;9.97;2.00;;;;;;;17.34;100.00;101999.19;4964290;28;20477;-74
2023/09/30 11:15:47;;;;;;;8.73;2.00;;;;;;;18.01;100.00;102098.22;4958409;28;20454;-74
2023/09/30 11:18:17;;;;;;;7.30;2.03;;;;;;;18.22;100.00;102088.06;4967293;28;20468;-75
2023/09/30 11:20:44;;;;;;;4.87;1.80;;;;;;;17.82;100.00;101983.31;4965443;28;20473;-75